createdAt,value
2023-01-02T00:01:43.104Z,102074.16
2023-01-02T00:04:11.571Z,102070.75
2023-01-02T00:06:40.731Z,102077.56
2023-01-02T00:09:10.024Z,102064.97
2023-01-02T00:11:39.214Z,102066.94
2023-01-02T00:14:09.054Z,102059.00
2023-01-02T00:16:37.394Z,102061.84
2023-01-02T00:19:06.926Z,102050.53
2023-01-02T00:21:35.285Z,102053.06
2023-01-02T00:24:05.080Z,102057.88
2023-01-02T00:26:33.481Z,102055.91
2023-01-02T00:29:02.319Z,102051.22
2023-01-02T00:31:33.302Z,102047.84
2023-01-02T00:34:01.749Z,102054.63
2023-01-02T00:36:31.182Z,102056.06
2023-01-02T00:38:59.607Z,102067.09
2023-01-02T00:41:27.969Z,102048.25
2023-01-02T00:43:56.451Z,102041.88
2023-01-02T00:46:24.877Z,102048.38
2023-01-02T00:48:54.732Z,102049.25
2023-01-02T00:51:23.064Z,102047.13
2023-01-02T00:53:51.565Z,102034.53
2023-01-02T00:56:19.981Z,102032.97
2023-01-02T00:58:48.678Z,102022.06
2023-01-02T01:01:16.999Z,101997.97
2023-01-02T01:03:46.480Z,102016.25
2023-01-02T01:06:17.222Z,102014.41
2023-01-02T01:08:45.600Z,102018.41
2023-01-02T01:11:16.778Z,101948.91
2023-01-02T01:13:45.685Z,102012.56
2023-01-02T01:16:16.287Z,101985.47
2023-01-02T01:18:45.729Z,102011.13
2023-01-02T01:21:17.526Z,102021.19
2023-01-02T01:23:46.573Z,102017.50
2023-01-02T01:26:15.101Z,102007.34
2023-01-02T01:28:43.534Z,102013.81
2023-01-02T01:31:13.929Z,102007.88
2023-01-02T01:33:43.807Z,102008.84
2023-01-02T01:36:14.646Z,102005.91
2023-01-02T01:38:45.114Z,101977.84
2023-01-02T01:41:15.373Z,101860.84
2023-01-02T01:43:46.853Z,102007.03
2023-01-02T01:46:22.879Z,101870.78
2023-01-02T01:48:56.046Z,102007.03
2023-01-02T01:51:25.866Z,102006.31
2023-01-02T01:54:01.497Z,102031.22
2023-01-02T01:56:30.119Z,102004.47
2023-01-02T01:58:58.532Z,102006.31
2023-01-02T02:01:26.996Z,101996.41
2023-01-02T02:03:55.980Z,101995.69
2023-01-02T02:06:24.500Z,102007.56
2023-01-02T02:09:00.914Z,102017.19
2023-01-02T02:11:30.013Z,101996.66
2023-01-02T02:14:01.054Z,101884.81
2023-01-02T02:16:40.794Z,101971.38
2023-01-02T02:19:35.580Z,102004.41
2023-01-02T02:22:24.508Z,102004.41
2023-01-02T02:25:27.058Z,102002.88
2023-01-02T02:28:20.274Z,102003.00
2023-01-02T02:30:56.685Z,102002.28
2023-01-02T02:33:38.136Z,101999.34
2023-01-02T02:36:16.120Z,101993.66
2023-01-02T02:38:58.329Z,101999.91
2023-01-02T02:41:35.638Z,101995.81
2023-01-02T02:44:13.220Z,102002.75
2023-01-02T02:46:51.306Z,101993.66
2023-01-02T02:49:32.617Z,101993.38
2023-01-02T02:52:08.734Z,101995.81
2023-01-02T02:54:43.374Z,102014.06
2023-01-02T02:57:14.061Z,102001.31
2023-01-02T02:59:43.668Z,101998.50
2023-01-02T03:02:17.157Z,101952.56
2023-01-02T03:04:48.148Z,102002.75
2023-01-02T03:07:26.893Z,102002.75
2023-01-02T03:10:05.757Z,102003.03
2023-01-02T03:12:44.803Z,102002.31
2023-01-02T03:15:21.480Z,102006.09
2023-01-02T03:18:05.791Z,102007.81
2023-01-02T03:20:39.192Z,102002.44
2023-01-02T03:23:12.343Z,101963.19
2023-01-02T03:25:45.168Z,101963.06
2023-01-02T03:28:18.291Z,101992.84
2023-01-02T03:30:48.843Z,101983.75
2023-01-02T03:33:25.536Z,101947.53
2023-01-02T03:35:57.847Z,101940.00
2023-01-02T03:38:30.506Z,101857.63
2023-01-02T03:41:06.754Z,101849.00
2023-01-02T03:43:37.946Z,101982.09
2023-01-02T03:46:12.115Z,101980.22
2023-01-02T03:48:47.447Z,101974.84
2023-01-02T03:51:15.888Z,101979.25
2023-01-02T03:53:45.222Z,101976.72
2023-01-02T03:56:23.799Z,101933.50
2023-01-02T03:58:57.785Z,101943.66
2023-01-02T04:01:35.930Z,101974.44
2023-01-02T04:04:14.659Z,101849.13
2023-01-02T04:06:47.447Z,101955.03
2023-01-02T04:09:20.038Z,101958.72
2023-01-02T04:11:52.579Z,101960.69
2023-01-02T04:14:26.128Z,101809.31
2023-01-02T04:16:56.884Z,101962.94
2023-01-02T04:19:30.110Z,101917.69
2023-01-02T04:22:02.482Z,101957.38
2023-01-02T04:24:34.624Z,101965.56
2023-01-02T04:27:07.871Z,101952.97
2023-01-02T04:29:36.744Z,101961.88
2023-01-02T04:32:12.759Z,101953.84
2023-01-02T04:34:44.882Z,101934.16
2023-01-02T04:37:28.007Z,101959.91
2023-01-02T04:39:59.909Z,101960.78
2023-01-02T04:42:28.479Z,101960.50
2023-01-02T04:44:56.872Z,101955.13
2023-01-02T04:47:25.342Z,101963.31
2023-01-02T04:49:55.103Z,101967.84
2023-01-02T04:52:23.581Z,101973.50
2023-01-02T04:54:51.940Z,101965.28
2023-01-02T04:57:20.377Z,101952.97
2023-01-02T04:59:48.736Z,101958.94
2023-01-02T05:02:17.175Z,101964.44
2023-01-02T05:04:45.618Z,101970.81
2023-01-02T05:07:15.488Z,101971.78
2023-01-02T05:09:43.887Z,101970.94
2023-01-02T05:12:12.288Z,101978.44
2023-01-02T05:14:41.679Z,101981.53
2023-01-02T05:17:10.054Z,101988.97
2023-01-02T05:19:38.426Z,101981.03
2023-01-02T05:22:24.127Z,101982.59
2023-01-02T05:24:54.007Z,101966.63
2023-01-02T05:27:22.482Z,101989.50
2023-01-02T05:29:50.850Z,101987.53
2023-01-02T05:32:19.226Z,101983.59
2023-01-02T05:34:47.632Z,101982.59
2023-01-02T05:37:16.083Z,101988.88
2023-01-02T05:39:44.409Z,101978.13
2023-01-02T05:42:14.214Z,101984.09
2023-01-02T05:44:42.553Z,101977.84
2023-01-02T05:47:16.361Z,101976.28
2023-01-02T05:49:45.243Z,101989.81
2023-01-02T05:52:13.670Z,101992.50
2023-01-02T05:54:42.165Z,101981.69
2023-01-02T05:57:10.562Z,101990.06
2023-01-02T05:59:40.415Z,101979.84
2023-01-02T06:02:09.172Z,101991.41
2023-01-02T06:04:37.725Z,101991.09
2023-01-02T06:07:06.142Z,101991.63
2023-01-02T06:09:34.537Z,101992.84
2023-01-02T06:12:02.868Z,101990.56
2023-01-02T06:14:32.196Z,102005.09
2023-01-02T06:17:01.964Z,102014.00
2023-01-02T06:19:30.314Z,102014.53
2023-01-02T06:21:58.773Z,102009.47
2023-01-02T06:24:27.160Z,102008.38
2023-01-02T06:26:57.265Z,102005.09
2023-01-02T06:29:25.702Z,102001.97
2023-01-02T06:31:54.149Z,102003.81
2023-01-02T06:34:23.939Z,102001.84
2023-01-02T06:36:52.253Z,102007.22
2023-01-02T06:39:20.576Z,102014.97
2023-01-02T06:41:48.942Z,102026.44
2023-01-02T06:44:17.617Z,102024.34
2023-01-02T06:46:45.991Z,102017.88
2023-01-02T06:49:14.301Z,102025.66
2023-01-02T06:51:44.119Z,102027.63
2023-01-02T06:54:12.716Z,102031.69
2023-01-02T06:56:41.049Z,102028.00
2023-01-02T06:59:10.811Z,102031.41
2023-01-02T07:01:39.333Z,102003.22
2023-01-02T07:04:07.786Z,102029.00
2023-01-02T07:06:36.229Z,102028.53
2023-01-02T07:09:06.024Z,102020.75
2023-01-02T07:11:35.868Z,102030.03
2023-01-02T07:14:05.281Z,102029.31
2023-01-02T07:16:33.802Z,102030.69
2023-01-02T07:19:02.498Z,102031.78
2023-01-02T07:21:31.464Z,102024.97
2023-01-02T07:23:59.783Z,102032.03
2023-01-02T07:26:29.673Z,101971.59
2023-01-02T07:28:58.039Z,102024.91
2023-01-02T07:31:29.321Z,102017.38
2023-01-02T07:33:59.114Z,102021.50
2023-01-02T07:36:27.430Z,102019.41
2023-01-02T07:38:57.380Z,102023.53
2023-01-02T07:41:27.189Z,102025.22
2023-01-02T07:43:57.203Z,102031.84
2023-01-02T07:46:26.159Z,101990.09
2023-01-02T07:48:54.788Z,102038.66
2023-01-02T07:51:27.395Z,102026.06
2023-01-02T07:53:57.138Z,102030.59
2023-01-02T07:56:25.621Z,102029.88
2023-01-02T07:58:54.508Z,102011.63
2023-01-02T08:01:24.677Z,102017.91
2023-01-02T08:03:53.367Z,102020.59
2023-01-02T08:06:21.966Z,102022.53
2023-01-02T08:08:50.695Z,102038.50
2023-01-02T08:11:21.447Z,101997.63
2023-01-02T08:13:50.259Z,102017.59
2023-01-02T08:16:20.338Z,102035.44
2023-01-02T08:18:52.403Z,102041.28
2023-01-02T08:21:20.832Z,102040.91
2023-01-02T08:23:49.213Z,102034.56
2023-01-02T08:26:17.850Z,102042.63
2023-01-02T08:28:46.342Z,102044.91
2023-01-02T08:31:19.046Z,102063.41
2023-01-02T08:33:49.209Z,102065.25
2023-01-02T08:36:20.201Z,102062.00
2023-01-02T08:38:48.686Z,102073.84
2023-01-02T08:41:17.064Z,102077.63
2023-01-02T08:43:45.535Z,102077.88
2023-01-02T08:46:13.926Z,102085.94
2023-01-02T08:48:42.283Z,102085.94
2023-01-02T08:51:12.462Z,102075.84
2023-01-02T08:53:40.881Z,102086.31
2023-01-02T08:56:20.509Z,102070.81
2023-01-02T08:58:53.884Z,102050.88
2023-01-02T09:01:24.015Z,102087.91
2023-01-02T09:03:53.448Z,102078.63
2023-01-02T09:06:24.675Z,102082.03
2023-01-02T09:08:55.492Z,102077.75
2023-01-02T09:11:26.607Z,102063.50
2023-01-02T09:13:55.669Z,102093.22
2023-01-02T09:16:24.625Z,102088.31
2023-01-02T09:18:53.365Z,102106.38
2023-01-02T09:21:23.252Z,102109.91
2023-01-02T09:23:51.970Z,102116.13
2023-01-02T09:26:21.357Z,102118.44
2023-01-02T09:28:50.959Z,102118.31
2023-01-02T09:31:20.286Z,102119.88
2023-01-02T09:33:49.580Z,102097.03
2023-01-02T09:36:19.769Z,102122.44
2023-01-02T09:38:54.748Z,102129.28
2023-01-02T09:41:34.432Z,102100.88
2023-01-02T09:44:06.980Z,102103.31
2023-01-02T09:46:41.956Z,102098.31
2023-01-02T09:49:14.845Z,102108.19
2023-01-02T09:51:44.982Z,101997.47
2023-01-02T09:54:22.106Z,102152.81
2023-01-02T09:56:58.574Z,102148.03
2023-01-02T09:59:33.134Z,102120.50
2023-01-02T10:02:14.480Z,102119.38
2023-01-02T10:04:57.317Z,102148.03
2023-01-02T10:07:34.632Z,102123.44
2023-01-02T10:10:09.621Z,102153.41
2023-01-02T10:12:47.417Z,102150.56
2023-01-02T10:15:22.077Z,102151.16
2023-01-02T10:17:57.802Z,102151.53
2023-01-02T10:20:31.896Z,102159.56
2023-01-02T10:23:04.454Z,102126.34
2023-01-02T10:25:37.703Z,102126.22
2023-01-02T10:28:21.028Z,102146.00
2023-01-02T10:31:07.039Z,102116.19
2023-01-02T10:33:43.788Z,102001.78
2023-01-02T10:36:23.644Z,102104.22
2023-01-02T10:38:52.648Z,102138.06
2023-01-02T10:41:22.351Z,102146.84
2023-01-02T10:43:56.003Z,102139.53
2023-01-02T10:46:24.417Z,102138.41
2023-01-02T10:48:52.954Z,102128.44
2023-01-02T10:51:22.426Z,102130.97
2023-01-02T10:54:02.204Z,102129.88
2023-01-02T10:56:35.496Z,102096.47
2023-01-02T10:59:04.238Z,102131.13
2023-01-02T11:01:39.674Z,102121.34
2023-01-02T11:04:14.217Z,102115.22
2023-01-02T11:06:53.296Z,101963.50
2023-01-02T11:09:23.681Z,102075.06
2023-01-02T11:11:55.220Z,102076.88
2023-01-02T11:14:28.531Z,102110.34
2023-01-02T11:17:05.320Z,102081.16
2023-01-02T11:19:41.746Z,102082.84
2023-01-02T11:22:10.906Z,102092.66
2023-01-02T11:25:00.579Z,102105.44
2023-01-02T11:27:35.267Z,102110.97
2023-01-02T11:30:05.513Z,102116.19
2023-01-02T11:32:40.899Z,102088.28
2023-01-02T11:35:35.083Z,101984.25
2023-01-02T11:38:03.801Z,102107.41
2023-01-02T11:40:33.904Z,102111.47
2023-01-02T11:43:26.809Z,102104.84
2023-01-02T11:45:56.035Z,102089.97
2023-01-02T11:48:25.888Z,102080.06
2023-01-02T11:50:54.460Z,102083.47
2023-01-02T11:53:28.459Z,102069.78
2023-01-02T11:56:01.686Z,102073.88
2023-01-02T11:58:38.551Z,102051.72
2023-01-02T12:01:13.266Z,102077.28
2023-01-02T12:03:42.122Z,102073.03
2023-01-02T12:06:18.344Z,102076.44
2023-01-02T12:09:01.781Z,102051.72
2023-01-02T12:11:41.777Z,102065.03
2023-01-02T12:14:18.125Z,102066.13
2023-01-02T12:16:53.609Z,102078.09
2023-01-02T12:19:50.226Z,102073.44
2023-01-02T12:22:47.074Z,102053.94
2023-01-02T12:25:36.129Z,102046.63
2023-01-02T12:28:20.159Z,102019.81
2023-01-02T12:30:57.311Z,102080.44
2023-01-02T12:33:41.583Z,102075.66
2023-01-02T12:36:36.779Z,102071.25
2023-01-02T12:39:40.516Z,102069.69
2023-01-02T12:42:23.886Z,102045.16
2023-01-02T12:44:55.080Z,101928.38
2023-01-02T12:47:34.618Z,102062.34
2023-01-02T12:50:26.689Z,102062.09
2023-01-02T12:53:08.253Z,102060.97
2023-01-02T12:55:50.679Z,102025.38
2023-01-02T12:58:36.433Z,102048.72
2023-01-02T13:01:15.195Z,102042.47
2023-01-02T13:03:55.303Z,102017.38
2023-01-02T13:06:44.797Z,101881.31
2023-01-02T13:09:23.103Z,102016.84
2023-01-02T13:12:02.625Z,101992.22
2023-01-02T13:14:36.826Z,102047.66
2023-01-02T13:17:30.060Z,102039.31
2023-01-02T13:20:05.663Z,102040.91
2023-01-02T13:22:48.881Z,101951.19
2023-01-02T13:25:22.030Z,102028.03
2023-01-02T13:27:52.237Z,102037.66
2023-01-02T13:30:45.278Z,101948.16
2023-01-02T13:33:23.937Z,101907.31
2023-01-02T13:35:53.959Z,102029.22
2023-01-02T13:38:30.630Z,101885.94
2023-01-02T13:41:03.571Z,102028.25
2023-01-02T13:43:34.839Z,102006.25
2023-01-02T13:46:03.821Z,102033.75
2023-01-02T13:48:36.500Z,102019.31
2023-01-02T13:51:14.347Z,102022.84
2023-01-02T13:53:44.555Z,102028.06
2023-01-02T13:56:14.742Z,101993.66
2023-01-02T13:58:49.566Z,101879.75
2023-01-02T14:02:04.496Z,102020.16
2023-01-02T14:04:40.595Z,102015.91
2023-01-02T14:07:56.245Z,102017.03
2023-01-02T14:10:45.122Z,102016.31
2023-01-02T14:13:25.088Z,102019.72
2023-01-02T14:16:32.378Z,102014.78
2023-01-02T14:19:17.614Z,101987.28
2023-01-02T14:21:49.259Z,102012.38
2023-01-02T14:24:30.748Z,101907.09
2023-01-02T14:27:03.780Z,102003.31
2023-01-02T14:29:40.723Z,102021.88
2023-01-02T14:32:18.679Z,102025.28
2023-01-02T14:34:49.542Z,101995.53
2023-01-02T14:37:38.262Z,102006.00
2023-01-02T14:40:18.554Z,102022.72
2023-01-02T14:43:12.973Z,102021.72
2023-01-02T14:45:45.902Z,102023.84
2023-01-02T14:48:21.061Z,102021.28
2023-01-02T14:50:51.601Z,102026.81
2023-01-02T14:53:24.029Z,102023.13
2023-01-02T14:55:56.932Z,102023.13
2023-01-02T14:58:40.662Z,102030.94
2023-01-02T15:01:11.992Z,102031.19
2023-01-02T15:03:49.473Z,102033.75
2023-01-02T15:06:25.382Z,102034.47
2023-01-02T15:08:58.449Z,101981.03
2023-01-02T15:11:45.300Z,102032.75
2023-01-02T15:14:23.384Z,102041.69
2023-01-02T15:16:55.096Z,102014.47
2023-01-02T15:19:26.860Z,102035.88
2023-01-02T15:21:55.950Z,102040.41
2023-01-02T15:24:30.402Z,102034.16
2023-01-02T15:27:14.008Z,102042.22
2023-01-02T15:29:49.138Z,102050.16
2023-01-02T15:32:20.815Z,101914.38
2023-01-02T15:34:51.143Z,102050.44
2023-01-02T15:37:21.925Z,102050.44
2023-01-02T15:39:53.844Z,101896.16
2023-01-02T15:42:42.893Z,102024.94
2023-01-02T15:45:15.978Z,102047.88
2023-01-02T15:47:49.028Z,102054.56
2023-01-02T15:50:20.987Z,102030.00
2023-01-02T15:52:54.222Z,102045.63
2023-01-02T15:55:22.849Z,102052.00
2023-01-02T15:57:54.552Z,102052.16
2023-01-02T16:00:40.309Z,102061.06
2023-01-02T16:03:10.579Z,101916.00
2023-01-02T16:05:48.587Z,102047.88
2023-01-02T16:08:22.745Z,102052.56
2023-01-02T16:11:01.496Z,102054.38
2023-01-02T16:13:51.182Z,102070.66
2023-01-02T16:16:22.339Z,102057.34
2023-01-02T16:18:59.570Z,102031.00
2023-01-02T16:21:32.130Z,102058.19
2023-01-02T16:24:01.130Z,102059.72
2023-01-02T16:26:34.207Z,102067.66
2023-01-02T16:29:02.618Z,102053.22
2023-01-02T16:31:52.363Z,102063.53
2023-01-02T16:34:28.621Z,101879.38
2023-01-02T16:37:39.200Z,102061.69
2023-01-02T16:40:59.599Z,102062.13
2023-01-02T16:43:41.082Z,102063.25
2023-01-02T16:46:16.539Z,102057.16
2023-01-02T16:48:46.654Z,102057.16
2023-01-02T16:51:16.875Z,102059.13
2023-01-02T16:53:46.091Z,102068.19
2023-01-02T16:56:16.589Z,102061.56
2023-01-02T16:58:45.091Z,102062.41
2023-01-02T17:01:16.865Z,102038.81
2023-01-02T17:03:49.088Z,102063.66
2023-01-02T17:06:19.220Z,102026.75
2023-01-02T17:08:54.105Z,102063.59
2023-01-02T17:11:30.031Z,102080.91
2023-01-02T17:14:02.124Z,102072.84
2023-01-02T17:16:30.552Z,102017.91
2023-01-02T17:19:00.369Z,102073.56
2023-01-02T17:21:32.722Z,102084.31
2023-01-02T17:24:01.623Z,102079.94
2023-01-02T17:26:31.015Z,102076.38
2023-01-02T17:29:00.373Z,102076.53
2023-01-02T17:31:28.750Z,102074.69
2023-01-02T17:33:57.114Z,102075.78
2023-01-02T17:36:26.937Z,102078.47
2023-01-02T17:38:55.987Z,102076.78
2023-01-02T17:41:25.632Z,102077.78
2023-01-02T17:44:02.393Z,102075.34
2023-01-02T17:49:22.148Z,102072.19
2023-01-02T17:51:51.967Z,102073.91
2023-01-02T17:54:20.407Z,102064.28
2023-01-02T17:56:48.820Z,102076.00
2023-01-02T17:59:19.954Z,102073.47
2023-01-02T18:01:49.378Z,102073.75
2023-01-02T18:04:18.232Z,102080.09
2023-01-02T18:06:46.835Z,102074.72
2023-01-02T18:09:16.577Z,102078.84
2023-01-02T18:11:45.024Z,102078.84
2023-01-02T18:14:18.474Z,102084.38
2023-01-02T18:16:47.983Z,102082.78
2023-01-02T18:19:18.690Z,102075.25
2023-01-02T18:21:48.120Z,102086.06
2023-01-02T18:24:24.571Z,102087.06
2023-01-02T18:26:59.208Z,101982.56
2023-01-02T18:29:27.551Z,102085.88
2023-01-02T18:31:56.227Z,102089.53
2023-01-02T18:34:47.784Z,102093.09
2023-01-02T18:37:21.316Z,102073.44
2023-01-02T18:39:51.602Z,102097.41
2023-01-02T18:42:23.134Z,102106.47
2023-01-02T18:44:53.694Z,102108.28
2023-01-02T18:47:29.674Z,102078.84
2023-01-02T18:50:02.200Z,102109.53
2023-01-02T18:52:34.195Z,102124.69
2023-01-02T18:55:24.106Z,102113.78
2023-01-02T18:57:57.723Z,102106.78
2023-01-02T19:00:28.440Z,102076.69
2023-01-02T19:03:01.158Z,102111.94
2023-01-02T19:05:31.917Z,102092.56
2023-01-02T19:08:19.593Z,102083.84
2023-01-02T19:10:51.525Z,102116.88
2023-01-02T19:13:21.319Z,102074.38
2023-01-02T19:15:51.240Z,102116.19
2023-01-02T19:18:35.479Z,101970.53
2023-01-02T19:21:17.937Z,102077.78
2023-01-02T19:23:49.640Z,102082.31
2023-01-02T19:26:24.538Z,102099.84
2023-01-02T19:28:57.900Z,102111.69
2023-01-02T19:31:27.468Z,102102.75
2023-01-02T19:33:58.553Z,102107.28
2023-01-02T19:36:36.765Z,101822.19
2023-01-02T19:39:24.483Z,102114.75
2023-01-02T19:42:12.196Z,102113.16
2023-01-02T19:44:41.514Z,102111.84
2023-01-02T19:47:09.888Z,102110.88
2023-01-02T19:49:38.414Z,102116.38
2023-01-02T19:52:07.578Z,102118.34
2023-01-02T19:54:35.877Z,102107.16
2023-01-02T19:57:07.364Z,102113.50
2023-01-02T19:59:43.300Z,102117.44
2023-01-02T20:02:12.969Z,102115.00
2023-01-02T20:04:42.060Z,102115.25
2023-01-02T20:07:11.049Z,102072.53
2023-01-02T20:09:39.759Z,102113.41
2023-01-02T20:12:27.276Z,102110.97
2023-01-02T20:14:55.699Z,102112.34
2023-01-02T20:17:24.171Z,102115.88
2023-01-02T20:19:52.813Z,102122.94
2023-01-02T20:22:21.115Z,102130.03
2023-01-02T20:24:49.627Z,102126.75
2023-01-02T20:27:20.687Z,102132.25
2023-01-02T20:29:49.183Z,102134.06
2023-01-02T20:32:18.026Z,102136.75
2023-01-02T20:34:46.459Z,102117.78
2023-01-02T20:37:15.044Z,102132.25
2023-01-02T20:39:43.475Z,102136.19
2023-01-02T20:42:13.651Z,102134.72
2023-01-02T20:44:43.750Z,102123.13
2023-01-02T20:47:13.130Z,102122.78
2023-01-02T20:49:42.183Z,102126.19
2023-01-02T20:52:10.817Z,102128.16
2023-01-02T20:54:39.385Z,102134.75
2023-01-02T20:57:07.733Z,102135.47
2023-01-02T20:59:36.232Z,102136.19
2023-01-02T21:02:08.098Z,102134.38
2023-01-02T21:04:37.325Z,102140.84
2023-01-02T21:07:06.543Z,102138.03
2023-01-02T21:09:35.061Z,102134.75
2023-01-02T21:12:03.409Z,102140.13
2023-01-02T21:14:37.288Z,102137.44
2023-01-02T21:17:07.523Z,102135.47
2023-01-02T21:19:35.975Z,102134.50
2023-01-02T21:22:05.134Z,102137.19
2023-01-02T21:24:33.502Z,102136.19
2023-01-02T21:27:01.827Z,102136.19
2023-01-02T21:29:30.199Z,102126.69
2023-01-02T21:31:58.506Z,102130.72
2023-01-02T21:34:29.434Z,102132.28
2023-01-02T21:36:57.702Z,102134.50
2023-01-02T21:39:26.148Z,102134.38
2023-01-02T21:42:12.139Z,102128.16
2023-01-02T21:44:40.582Z,102139.75
2023-01-02T21:47:09.371Z,102135.22
2023-01-02T21:49:39.193Z,102129.72
2023-01-02T21:52:07.669Z,102134.97
2023-01-02T21:54:36.023Z,102130.34
2023-01-02T21:57:04.322Z,102134.84
2023-01-02T21:59:32.680Z,102133.03
2023-01-02T22:02:03.920Z,102126.19
2023-01-02T22:04:33.608Z,102133.28
2023-01-02T22:07:30.709Z,102130.84
2023-01-02T22:09:53.177Z,102123.22
2023-01-02T22:12:21.579Z,102127.59
2023-01-02T22:14:49.983Z,102124.91
2023-01-02T22:17:18.327Z,102125.75
2023-01-02T22:19:46.756Z,102126.75
2023-01-02T22:22:16.939Z,102137.19
2023-01-02T22:24:46.103Z,102129.88
2023-01-02T22:27:17.418Z,102102.47
2023-01-02T22:32:36.323Z,102142.31
2023-01-02T22:35:07.203Z,102133.03
2023-01-02T22:37:37.043Z,102141.69
2023-01-02T22:40:06.074Z,102145.97
2023-01-02T22:43:00.968Z,102153.03
2023-01-02T22:45:35.202Z,102149.50
2023-01-02T22:48:07.743Z,102146.69
2023-01-02T22:50:43.174Z,102151.81
2023-01-02T22:53:20.200Z,102131.34
2023-01-02T22:55:50.259Z,102152.53
2023-01-02T22:58:20.023Z,102160.00
2023-01-02T23:00:57.936Z,102146.56
2023-01-02T23:03:29.703Z,102167.19
2023-01-02T23:05:58.635Z,102159.25
2023-01-02T23:08:28.476Z,102153.28
2023-01-02T23:10:56.996Z,102148.16
2023-01-02T23:13:25.323Z,102121.88
2023-01-02T23:16:11.496Z,102151.44
2023-01-02T23:19:12.935Z,102150.84
2023-01-02T23:21:44.547Z,102130.13
2023-01-02T23:24:17.502Z,102150.72
2023-01-02T23:26:47.664Z,102154.13
2023-01-02T23:29:17.569Z,102161.22
2023-01-02T23:31:49.003Z,102162.31
2023-01-02T23:34:18.896Z,102150.59
2023-01-02T23:36:47.229Z,102152.56
2023-01-02T23:39:19.659Z,102111.50
2023-01-02T23:41:49.008Z,102145.00
2023-01-02T23:44:18.156Z,102139.63
2023-01-02T23:46:47.477Z,102134.50
2023-01-02T23:49:17.420Z,102150.63
2023-01-02T23:51:47.352Z,102147.22
2023-01-02T23:54:18.214Z,102144.56
2023-01-02T23:56:48.388Z,102109.56
2023-01-02T23:59:18.799Z,102146.88
